createdAt,value
2023-02-22T00:01:53.273Z,32.17
2023-02-22T00:04:23.336Z,32.17
2023-02-22T00:06:54.082Z,31.87
2023-02-22T00:09:26.908Z,31.60
2023-02-22T00:12:04.441Z,34.55
2023-02-22T00:14:33.658Z,33.47
2023-02-22T00:17:02.562Z,31.92
2023-02-22T00:19:31.924Z,36.72
2023-02-22T00:22:07.436Z,37.13
2023-02-22T00:24:45.521Z,33.70
2023-02-22T00:27:19.777Z,37.05
2023-02-22T00:29:51.904Z,36.97
2023-02-22T00:32:32.649Z,36.13
2023-02-22T00:34:59.305Z,33.55
2023-02-22T00:37:42.952Z,36.20
2023-02-22T00:40:28.382Z,35.35
2023-02-22T00:46:06.103Z,34.30
2023-02-22T00:48:46.983Z,35.83
2023-02-22T00:51:17.285Z,35.30
2023-02-22T00:53:50.506Z,38.78
2023-02-22T00:56:21.803Z,36.25
2023-02-22T00:58:53.367Z,40.60
2023-02-22T01:01:22.705Z,44.35
2023-02-22T01:03:53.272Z,37.75
2023-02-22T01:06:23.452Z,37.78
2023-02-22T01:08:53.834Z,38.08
2023-02-22T01:11:23.510Z,39.88
2023-02-22T01:13:50.404Z,40.03
2023-02-22T01:16:19.194Z,36.60
2023-02-22T01:18:50.038Z,36.78
2023-02-22T01:21:21.912Z,34.65
2023-02-22T01:24:16.260Z,39.53
2023-02-22T01:26:49.986Z,34.20
2023-02-22T01:29:22.651Z,39.30
2023-02-22T01:32:05.702Z,32.53
2023-02-22T01:34:36.248Z,32.67
2023-02-22T01:37:12.090Z,39.55
2023-02-22T01:39:50.152Z,38.85
2023-02-22T01:42:24.285Z,34.30
2023-02-22T01:45:32.902Z,37.00
2023-02-22T01:48:38.195Z,41.75
2023-02-22T01:51:23.174Z,35.78
2023-02-22T01:53:59.948Z,40.65
2023-02-22T01:56:34.689Z,35.22
2023-02-22T01:59:16.901Z,46.58
2023-02-22T02:01:49.351Z,38.63
2023-02-22T02:07:04.869Z,34.30
2023-02-22T02:10:08.650Z,35.78
2023-02-22T02:15:36.346Z,35.15
2023-02-22T02:18:15.078Z,33.47
2023-02-22T02:20:53.918Z,35.03
2023-02-22T02:23:49.370Z,37.33
2023-02-22T02:26:47.877Z,29.23
2023-02-22T02:29:47.697Z,32.08
2023-02-22T02:33:22.140Z,38.15
2023-02-22T02:36:09.755Z,33.22
2023-02-22T02:38:52.301Z,34.47
2023-02-22T02:41:52.287Z,37.55
2023-02-22T02:44:38.735Z,30.40
2023-02-22T02:47:31.058Z,30.30
2023-02-22T02:50:09.999Z,32.17
2023-02-22T02:52:40.490Z,33.75
2023-02-22T02:55:08.953Z,40.08
2023-02-22T02:57:40.581Z,39.47
2023-02-22T03:00:23.229Z,32.67
2023-02-22T03:03:01.476Z,34.92
2023-02-22T03:05:53.727Z,34.20
2023-02-22T03:08:54.377Z,33.80
2023-02-22T03:11:50.531Z,29.38
2023-02-22T03:14:46.875Z,29.42
2023-02-22T03:17:40.964Z,29.73
2023-02-22T03:20:16.102Z,29.63
2023-02-22T03:23:12.994Z,30.88
2023-02-22T03:25:56.215Z,24.13
2023-02-22T03:28:27.516Z,28.27
2023-02-22T03:31:11.246Z,24.45
2023-02-22T03:33:57.839Z,21.77
2023-02-22T03:36:39.939Z,20.40
2023-02-22T03:39:12.213Z,24.00
2023-02-22T03:41:41.374Z,24.38
2023-02-22T03:44:18.753Z,24.38
2023-02-22T03:46:51.572Z,21.13
2023-02-22T03:49:37.828Z,25.63
2023-02-22T03:52:13.732Z,17.90
2023-02-22T03:54:44.860Z,22.00
2023-02-22T03:57:22.416Z,21.17
2023-02-22T03:59:57.696Z,32.20
2023-02-22T04:02:26.200Z,18.63
2023-02-22T04:04:56.531Z,18.75
2023-02-22T04:07:24.406Z,24.50
2023-02-22T04:10:00.289Z,19.17
2023-02-22T04:12:35.909Z,19.75
2023-02-22T04:15:06.433Z,25.00
2023-02-22T04:20:10.536Z,17.95
2023-02-22T04:22:46.168Z,19.87
2023-02-22T04:28:07.309Z,21.90
2023-02-22T04:30:36.304Z,18.15
2023-02-22T04:33:13.466Z,17.63
2023-02-22T04:35:48.320Z,18.58
2023-02-22T04:38:27.924Z,17.50
2023-02-22T04:40:59.155Z,17.80
2023-02-22T04:45:58.171Z,16.92
2023-02-22T04:48:24.739Z,17.00
2023-02-22T04:50:53.766Z,19.05
2023-02-22T04:53:21.567Z,18.75
2023-02-22T04:55:53.989Z,18.42
2023-02-22T04:58:23.724Z,20.77
2023-02-22T05:00:50.201Z,19.02
2023-02-22T05:03:16.777Z,20.73
2023-02-22T05:05:43.913Z,20.20
2023-02-22T05:08:10.527Z,22.25
2023-02-22T05:10:36.969Z,21.50
2023-02-22T05:13:06.145Z,18.83
2023-02-22T05:15:32.639Z,21.55
2023-02-22T05:17:59.210Z,30.50
2023-02-22T05:20:30.089Z,22.35
2023-02-22T05:22:57.680Z,24.30
2023-02-22T05:25:25.034Z,19.30
2023-02-22T05:27:57.324Z,22.27
2023-02-22T05:30:26.906Z,21.17
2023-02-22T05:32:53.449Z,23.88
2023-02-22T05:35:20.813Z,24.38
2023-02-22T05:37:47.325Z,24.60
2023-02-22T05:40:14.504Z,17.25
2023-02-22T05:42:41.761Z,22.73
2023-02-22T05:45:09.285Z,23.05
2023-02-22T05:47:35.739Z,21.70
2023-02-22T05:50:02.202Z,19.17
2023-02-22T05:52:28.869Z,18.73
2023-02-22T05:54:55.341Z,19.00
2023-02-22T05:57:21.901Z,18.40
2023-02-22T05:59:48.468Z,21.58
2023-02-22T06:02:14.927Z,19.10
2023-02-22T06:04:45.119Z,20.02
2023-02-22T06:07:11.723Z,18.35
2023-02-22T06:09:38.786Z,17.58
2023-02-22T06:12:05.772Z,14.55
2023-02-22T06:14:32.394Z,15.02
2023-02-22T06:16:59.242Z,14.27
2023-02-22T06:19:26.294Z,14.55
2023-02-22T06:21:54.226Z,13.27
2023-02-22T06:24:21.265Z,13.25
2023-02-22T06:26:55.178Z,15.02
2023-02-22T06:29:21.762Z,12.80
2023-02-22T06:31:48.409Z,13.68
2023-02-22T06:34:14.985Z,12.68
2023-02-22T06:36:42.506Z,12.05
2023-02-22T06:39:11.823Z,11.52
2023-02-22T06:41:38.621Z,12.65
2023-02-22T06:44:05.420Z,11.90
2023-02-22T06:46:32.537Z,15.52
2023-02-22T06:49:02.176Z,15.57
2023-02-22T06:51:29.022Z,14.25
2023-02-22T06:53:55.713Z,14.60
2023-02-22T06:56:22.256Z,14.43
2023-02-22T06:58:51.364Z,15.85
2023-02-22T07:01:18.298Z,15.35
2023-02-22T07:03:45.055Z,13.40
2023-02-22T07:06:13.684Z,13.18
2023-02-22T07:08:40.173Z,14.88
2023-02-22T07:11:06.722Z,13.10
2023-02-22T07:13:33.309Z,13.38
2023-02-22T07:16:00.747Z,12.85
2023-02-22T07:18:28.609Z,13.40
2023-02-22T07:20:56.158Z,10.90
2023-02-22T07:23:24.211Z,12.90
2023-02-22T07:25:50.903Z,11.90
2023-02-22T07:28:17.386Z,11.52
2023-02-22T07:30:43.948Z,13.20
2023-02-22T07:33:12.073Z,11.35
2023-02-22T07:35:47.460Z,13.65
2023-02-22T07:38:16.079Z,12.25
2023-02-22T07:40:42.785Z,12.40
2023-02-22T07:43:17.295Z,13.20
2023-02-22T07:45:44.129Z,14.07
2023-02-22T07:48:12.553Z,13.13
2023-02-22T07:50:40.055Z,12.63
2023-02-22T07:53:18.130Z,14.20
2023-02-22T07:55:44.988Z,15.25
2023-02-22T07:58:15.396Z,14.00
2023-02-22T08:00:44.130Z,13.63
2023-02-22T08:03:13.287Z,13.65
2023-02-22T08:05:41.980Z,13.63
2023-02-22T08:08:08.792Z,12.38
2023-02-22T08:10:36.193Z,14.10
2023-02-22T08:13:04.443Z,13.60
2023-02-22T08:15:33.450Z,15.65
2023-02-22T08:18:01.544Z,13.85
2023-02-22T08:20:29.650Z,14.20
2023-02-22T08:22:59.713Z,14.95
2023-02-22T08:25:27.986Z,14.30
2023-02-22T08:28:02.321Z,14.98
2023-02-22T08:30:30.814Z,13.80
2023-02-22T08:32:58.397Z,15.65
2023-02-22T08:35:25.546Z,14.40
2023-02-22T08:37:55.034Z,15.05
2023-02-22T08:40:23.467Z,14.95
2023-02-22T08:42:50.018Z,15.13
2023-02-22T08:45:16.701Z,13.25
2023-02-22T08:47:43.513Z,13.00
2023-02-22T08:50:16.888Z,13.88
2023-02-22T08:52:43.438Z,13.77
2023-02-22T08:55:10.151Z,14.13
2023-02-22T08:57:36.648Z,12.95
2023-02-22T09:00:05.296Z,13.90
2023-02-22T09:02:31.841Z,12.80
2023-02-22T09:04:58.396Z,13.48
2023-02-22T09:07:25.095Z,14.25
2023-02-22T09:09:51.626Z,13.35
2023-02-22T09:12:18.134Z,14.35
2023-02-22T09:14:44.623Z,13.13
2023-02-22T09:17:11.126Z,13.63
2023-02-22T09:19:37.661Z,14.52
2023-02-22T09:22:04.277Z,13.75
2023-02-22T09:24:30.902Z,13.23
2023-02-22T09:26:59.261Z,11.85
2023-02-22T09:29:27.468Z,14.05
2023-02-22T09:31:55.908Z,12.73
2023-02-22T09:34:29.557Z,13.77
2023-02-22T09:37:00.148Z,14.38
2023-02-22T09:39:26.728Z,13.18
2023-02-22T09:45:55.967Z,12.32
2023-02-22T09:48:22.874Z,12.88
2023-02-22T09:50:51.791Z,12.68
2023-02-22T09:53:41.794Z,12.73
2023-02-22T09:56:11.409Z,12.63
2023-02-22T09:58:45.816Z,12.52
2023-02-22T10:01:32.894Z,10.77
2023-02-22T10:04:10.800Z,11.82
2023-02-22T10:14:29.504Z,12.27
2023-02-22T10:16:59.496Z,12.02
2023-02-22T10:22:43.389Z,11.80
2023-02-22T10:25:12.928Z,10.40
2023-02-22T10:27:53.231Z,11.45
2023-02-22T10:30:25.103Z,10.00
2023-02-22T10:33:05.581Z,11.43
2023-02-22T10:35:37.167Z,10.53
2023-02-22T10:38:12.755Z,10.25
2023-02-22T10:40:39.405Z,8.70
2023-02-22T10:43:07.849Z,9.40
2023-02-22T10:45:37.018Z,9.05
2023-02-22T10:48:11.689Z,12.20
2023-02-22T10:50:40.933Z,11.27
2023-02-22T10:53:08.623Z,10.98
2023-02-22T10:55:35.633Z,10.32
2023-02-22T10:58:07.423Z,11.35
2023-02-22T11:00:39.907Z,11.15
2023-02-22T11:03:21.361Z,9.65
2023-02-22T11:05:48.486Z,10.73
2023-02-22T11:08:20.963Z,11.55
2023-02-22T11:11:39.859Z,9.48
2023-02-22T11:14:07.503Z,10.40
2023-02-22T11:16:53.880Z,6.80
2023-02-22T11:19:23.181Z,6.55
2023-02-22T11:21:53.056Z,4.85
2023-02-22T11:24:24.226Z,5.73
2023-02-22T11:26:54.370Z,5.25
2023-02-22T11:29:25.790Z,5.40
2023-02-22T11:31:52.728Z,5.53
2023-02-22T11:34:31.558Z,5.65
2023-02-22T11:37:22.219Z,4.55
2023-02-22T11:39:51.401Z,4.90
2023-02-22T11:42:25.139Z,5.00
2023-02-22T11:45:15.141Z,4.47
2023-02-22T11:47:54.179Z,4.90
2023-02-22T11:50:31.206Z,4.78
2023-02-22T11:53:22.136Z,4.20
2023-02-22T11:58:37.975Z,4.53
2023-02-22T12:01:17.597Z,4.70
2023-02-22T12:04:05.565Z,4.72
2023-02-22T12:07:11.040Z,4.40
2023-02-22T12:09:44.790Z,4.60
2023-02-22T12:12:32.572Z,4.15
2023-02-22T12:15:13.995Z,4.85
2023-02-22T12:18:00.915Z,5.00
2023-02-22T12:20:39.633Z,4.10
2023-02-22T12:23:15.295Z,4.50
2023-02-22T12:25:50.070Z,4.53
2023-02-22T12:28:24.923Z,5.57
2023-02-22T12:31:05.473Z,4.50
2023-02-22T12:33:42.573Z,4.47
2023-02-22T12:36:11.561Z,5.07
2023-02-22T12:38:44.288Z,3.70
2023-02-22T12:41:18.987Z,3.70
2023-02-22T12:43:51.763Z,4.80
2023-02-22T12:46:24.082Z,5.85
2023-02-22T12:49:02.708Z,4.45
2023-02-22T12:51:32.073Z,4.53
2023-02-22T12:54:12.830Z,4.78
2023-02-22T12:59:35.046Z,4.18
2023-02-22T13:02:09.951Z,5.03
2023-02-22T13:04:36.907Z,4.38
2023-02-22T13:07:06.427Z,4.43
2023-02-22T13:09:55.213Z,4.53
2023-02-22T13:12:48.040Z,5.60
2023-02-22T13:15:43.424Z,3.97
2023-02-22T13:18:19.561Z,3.63
2023-02-22T13:20:57.426Z,3.15
2023-02-22T13:23:39.350Z,4.05
2023-02-22T13:26:12.239Z,3.15
2023-02-22T13:29:08.774Z,3.25
2023-02-22T13:32:11.059Z,3.35
2023-02-22T13:34:37.682Z,3.83
2023-02-22T13:37:17.765Z,3.92
2023-02-22T13:40:00.027Z,3.40
2023-02-22T13:42:33.352Z,3.53
2023-02-22T13:45:24.736Z,3.97
2023-02-22T13:48:03.689Z,3.45
2023-02-22T13:51:06.637Z,3.53
2023-02-22T13:53:43.785Z,4.00
2023-02-22T13:56:11.824Z,3.88
2023-02-22T13:59:04.875Z,4.22
2023-02-22T14:01:39.282Z,4.28
2023-02-22T14:04:27.208Z,3.92
2023-02-22T14:07:22.642Z,4.63
2023-02-22T14:09:51.829Z,4.20
2023-02-22T14:12:30.551Z,4.15
2023-02-22T14:15:28.577Z,4.07
2023-02-22T14:18:02.411Z,4.30
2023-02-22T14:20:40.208Z,4.03
2023-02-22T14:23:25.935Z,4.60
2023-02-22T14:25:52.533Z,3.72
2023-02-22T14:28:42.638Z,5.13
2023-02-22T14:31:29.471Z,4.40
2023-02-22T14:34:02.836Z,4.63
2023-02-22T14:36:36.750Z,3.95
2023-02-22T14:39:10.796Z,4.43
2023-02-22T14:41:38.684Z,5.18
2023-02-22T14:44:05.840Z,4.57
2023-02-22T14:46:36.210Z,5.15
2023-02-22T14:49:05.504Z,4.45
2023-02-22T14:51:40.793Z,4.88
2023-02-22T14:54:47.310Z,5.07
2023-02-22T14:57:29.681Z,4.32
2023-02-22T15:00:30.909Z,5.13
2023-02-22T15:05:30.323Z,5.00
2023-02-22T15:08:00.516Z,4.82
2023-02-22T15:10:28.580Z,5.22
2023-02-22T15:13:09.399Z,5.65
2023-02-22T15:15:38.705Z,5.15
2023-02-22T15:18:12.316Z,5.75
2023-02-22T15:20:38.831Z,6.30
2023-02-22T15:23:05.487Z,6.50
2023-02-22T15:25:32.303Z,5.90
2023-02-22T15:28:09.466Z,6.78
2023-02-22T15:30:36.062Z,5.82
2023-02-22T15:33:17.803Z,6.88
2023-02-22T15:35:44.837Z,5.72
2023-02-22T15:38:11.305Z,6.45
2023-02-22T15:40:43.101Z,6.50
2023-02-22T15:43:20.152Z,6.40
2023-02-22T15:45:46.798Z,7.18
2023-02-22T15:48:15.818Z,6.97
2023-02-22T15:50:59.580Z,6.82
2023-02-22T15:53:30.161Z,7.20
2023-02-22T15:55:59.244Z,6.97
2023-02-22T15:58:29.120Z,8.10
2023-02-22T16:01:04.269Z,8.27
2023-02-22T16:03:47.187Z,7.45
2023-02-22T16:06:38.441Z,6.88
2023-02-22T16:09:12.277Z,6.68
2023-02-22T16:11:44.292Z,7.20
2023-02-22T16:14:36.725Z,7.20
2023-02-22T16:17:49.462Z,8.00
2023-02-22T16:20:21.918Z,7.72
2023-02-22T16:22:49.775Z,8.45
2023-02-22T16:25:19.552Z,7.70
2023-02-22T16:28:28.057Z,9.07
2023-02-22T16:30:58.568Z,7.97
2023-02-22T16:33:29.665Z,6.97
2023-02-22T16:35:57.082Z,8.80
2023-02-22T16:38:24.082Z,8.43
2023-02-22T16:40:53.946Z,8.30
2023-02-22T16:43:25.803Z,8.27
2023-02-22T16:45:55.102Z,8.38
2023-02-22T16:48:25.375Z,8.93
2023-02-22T16:50:54.202Z,8.30
2023-02-22T16:53:25.772Z,9.25
2023-02-22T16:55:57.650Z,8.63
2023-02-22T16:58:28.713Z,9.23
2023-02-22T17:00:57.393Z,9.85
2023-02-22T17:03:25.176Z,8.15
2023-02-22T17:05:52.011Z,8.20
2023-02-22T17:08:18.751Z,8.05
2023-02-22T17:10:46.451Z,8.80
2023-02-22T17:13:23.627Z,8.57
2023-02-22T17:15:51.593Z,9.23
2023-02-22T17:18:22.752Z,8.40
2023-02-22T17:20:53.076Z,9.05
2023-02-22T17:23:20.439Z,9.95
2023-02-22T17:26:02.446Z,10.00
2023-02-22T17:28:29.801Z,8.75
2023-02-22T17:31:01.983Z,10.32
2023-02-22T17:33:31.287Z,10.35
2023-02-22T17:35:59.191Z,9.20
2023-02-22T17:38:29.042Z,9.27
2023-02-22T17:40:56.864Z,11.23
2023-02-22T17:43:24.995Z,10.15
2023-02-22T17:45:51.827Z,10.23
2023-02-22T17:48:18.571Z,9.63
2023-02-22T17:50:47.104Z,10.18
2023-02-22T17:53:14.232Z,11.13
2023-02-22T17:55:42.808Z,10.45
2023-02-22T17:58:14.675Z,11.38
2023-02-22T18:00:47.305Z,11.13
2023-02-22T18:03:16.434Z,11.85
2023-02-22T18:05:49.261Z,11.68
2023-02-22T18:08:15.937Z,11.43
2023-02-22T18:10:43.862Z,12.07
2023-02-22T18:13:14.235Z,12.50
2023-02-22T18:15:40.859Z,11.98
2023-02-22T18:18:08.227Z,12.30
2023-02-22T18:20:43.479Z,12.60
2023-02-22T18:23:19.573Z,11.52
2023-02-22T18:26:09.286Z,11.63
2023-02-22T18:28:36.727Z,11.32
2023-02-22T18:31:07.625Z,11.93
2023-02-22T18:33:34.277Z,12.85
2023-02-22T18:36:00.809Z,11.95
2023-02-22T18:38:27.305Z,13.38
2023-02-22T18:41:06.725Z,13.50
2023-02-22T18:43:36.588Z,13.30
2023-02-22T18:46:13.258Z,14.38
2023-02-22T18:48:40.385Z,12.63
2023-02-22T18:51:10.392Z,15.00
2023-02-22T18:53:38.756Z,17.80
2023-02-22T18:56:12.979Z,14.02
2023-02-22T18:58:39.637Z,13.77
2023-02-22T19:01:06.979Z,13.80
2023-02-22T19:03:38.334Z,14.32
2023-02-22T19:06:09.765Z,14.40
2023-02-22T19:08:39.629Z,15.30
2023-02-22T19:11:08.649Z,14.70
2023-02-22T19:13:36.060Z,15.20
2023-02-22T19:16:07.248Z,14.75
2023-02-22T19:18:34.227Z,13.95
2023-02-22T19:21:03.479Z,15.15
2023-02-22T19:23:34.375Z,15.57
2023-02-22T19:26:02.466Z,15.05
2023-02-22T19:28:34.144Z,16.92
2023-02-22T19:31:14.309Z,18.20
2023-02-22T19:33:41.306Z,18.52
2023-02-22T19:36:09.339Z,20.05
2023-02-22T19:38:35.951Z,20.33
2023-02-22T19:41:10.487Z,23.67
2023-02-22T19:43:39.274Z,24.30
2023-02-22T19:46:06.619Z,25.05
2023-02-22T19:48:33.440Z,23.95
2023-02-22T19:51:08.096Z,25.42
2023-02-22T19:53:35.288Z,24.00
2023-02-22T19:56:07.080Z,23.98
2023-02-22T19:58:36.761Z,25.10
2023-02-22T20:01:16.226Z,26.65
2023-02-22T20:03:43.541Z,26.05
2023-02-22T20:06:11.267Z,25.52
2023-02-22T20:08:42.149Z,25.30
2023-02-22T20:11:10.429Z,25.90
2023-02-22T20:13:38.409Z,25.90
2023-02-22T20:16:05.746Z,27.95
2023-02-22T20:18:32.669Z,27.45
2023-02-22T20:20:59.221Z,28.60
2023-02-22T20:23:25.913Z,27.38
2023-02-22T20:25:56.577Z,26.92
2023-02-22T20:28:24.209Z,27.00
2023-02-22T20:30:51.677Z,26.20
2023-02-22T20:33:19.675Z,26.38
2023-02-22T20:35:47.037Z,26.45
2023-02-22T20:38:14.589Z,28.30
2023-02-22T20:40:42.186Z,29.48
2023-02-22T20:43:09.379Z,29.13
2023-02-22T20:45:39.480Z,27.58
2023-02-22T20:48:06.181Z,27.95
2023-02-22T20:50:34.854Z,27.83
2023-02-22T20:53:01.491Z,28.17
2023-02-22T20:55:27.998Z,28.67
2023-02-22T20:57:54.616Z,27.85
2023-02-22T21:00:21.273Z,27.15
2023-02-22T21:02:47.860Z,27.90
2023-02-22T21:05:14.421Z,26.90
2023-02-22T21:07:40.978Z,27.17
2023-02-22T21:10:07.902Z,26.83
2023-02-22T21:12:35.122Z,26.48
2023-02-22T21:15:01.723Z,25.95
2023-02-22T21:17:31.269Z,27.77
2023-02-22T21:19:58.826Z,26.92
2023-02-22T21:22:25.684Z,26.25
2023-02-22T21:24:52.295Z,26.80
2023-02-22T21:27:18.949Z,28.23
2023-02-22T21:29:45.642Z,29.23
2023-02-22T21:32:13.762Z,26.67
2023-02-22T21:34:41.182Z,28.88
2023-02-22T21:37:08.308Z,27.80
2023-02-22T21:39:35.450Z,27.92
2023-02-22T21:42:02.314Z,28.58
2023-02-22T21:44:29.725Z,29.10
2023-02-22T21:46:57.088Z,29.65
2023-02-22T21:49:25.048Z,30.67
2023-02-22T21:51:52.671Z,31.55
2023-02-22T21:54:22.395Z,30.73
2023-02-22T21:56:50.630Z,30.15
2023-02-22T21:59:20.099Z,32.85
2023-02-22T22:01:50.253Z,31.10
2023-02-22T22:04:19.329Z,32.20
2023-02-22T22:06:52.974Z,31.90
2023-02-22T22:09:21.885Z,31.33
2023-02-22T22:11:49.941Z,28.98
2023-02-22T22:14:21.611Z,31.08
2023-02-22T22:16:49.966Z,30.48
2023-02-22T22:19:16.960Z,31.90
2023-02-22T22:21:43.855Z,30.05
2023-02-22T22:24:13.709Z,32.00
2023-02-22T22:26:40.434Z,32.97
2023-02-22T22:29:11.389Z,31.70
2023-02-22T22:31:38.944Z,31.85
2023-02-22T22:34:10.521Z,32.28
2023-02-22T22:36:37.879Z,32.17
2023-02-22T22:39:13.119Z,32.80
2023-02-22T22:41:44.221Z,34.08
2023-02-22T22:44:16.663Z,33.42
2023-02-22T22:46:43.463Z,33.83
2023-02-22T22:49:13.273Z,34.10
2023-02-22T22:51:41.061Z,35.53
2023-02-22T22:54:09.532Z,34.47
2023-02-22T22:56:37.996Z,34.10
2023-02-22T22:59:09.757Z,35.03
2023-02-22T23:01:44.236Z,34.67
2023-02-22T23:04:13.386Z,35.30
2023-02-22T23:06:41.920Z,36.30
2023-02-22T23:09:26.156Z,38.70
2023-02-22T23:11:54.135Z,37.15
2023-02-22T23:14:26.226Z,36.97
2023-02-22T23:16:56.596Z,37.08
2023-02-22T23:19:23.202Z,39.15
2023-02-22T23:21:50.172Z,38.25
2023-02-22T23:24:19.737Z,41.03
2023-02-22T23:26:49.422Z,39.08
2023-02-22T23:29:18.736Z,41.03
2023-02-22T23:31:48.205Z,39.85
2023-02-22T23:34:21.056Z,43.63
2023-02-22T23:36:48.503Z,40.88
2023-02-22T23:39:17.286Z,39.42
2023-02-22T23:41:43.821Z,39.53
2023-02-22T23:44:13.989Z,41.25
2023-02-22T23:46:41.666Z,39.95
2023-02-22T23:49:09.951Z,40.45
2023-02-22T23:51:39.655Z,40.20
2023-02-22T23:54:08.309Z,41.08
2023-02-22T23:56:35.672Z,43.65
2023-02-22T23:59:09.490Z,44.10
